sensor_id;sensor_type;location;lat;lon;timestamp;pressure;altitude;pressure_sealevel;temperature;humidity
64078;BME280;51039;49.696;10.808;2023-04-02T00:00:31;97442.88;;;7.96;100.00
64078;BME280;51039;49.696;10.808;2023-04-02T00:03:05;97446.34;;;7.97;100.00
64078;BME280;51039;49.696;10.808;2023-04-02T00:05:46;97449.38;;;7.94;100.00
64078;BME280;51039;49.696;10.808;2023-04-02T00:13:23;97458.91;;;7.95;100.00
64078;BME280;51039;49.696;10.808;2023-04-02T00:16:11;97454.84;;;7.92;100.00
64078;BME280;51039;49.696;10.808;2023-04-02T00:18:39;97463.16;;;7.96;100.00
64078;BME280;51039;49.696;10.808;2023-04-02T00:21:12;97456.88;;;7.97;100.00
64078;BME280;51039;49.696;10.808;2023-04-02T00:23:45;97461.13;;;8.04;100.00
64078;BME280;51039;49.696;10.808;2023-04-02T00:29:00;97469.22;;;8.03;100.00
64078;BME280;51039;49.696;10.808;2023-04-02T00:31:28;97480.78;;;8.02;100.00
64078;BME280;51039;49.696;10.808;2023-04-02T00:33:54;97478.75;;;8.04;100.00
64078;BME280;51039;49.696;10.808;2023-04-02T00:36:21;97475.31;;;8.03;100.00
64078;BME280;51039;49.696;10.808;2023-04-02T00:38:50;97484.66;;;7.99;100.00
64078;BME280;51039;49.696;10.808;2023-04-02T00:41:21;97481.63;;;7.96;100.00
64078;BME280;51039;49.696;10.808;2023-04-02T00:43:51;97480.00;;;7.95;100.00
64078;BME280;51039;49.696;10.808;2023-04-02T00:46:19;97480.22;;;7.93;100.00
64078;BME280;51039;49.696;10.808;2023-04-02T00:48:51;97481.44;;;7.91;100.00
64078;BME280;51039;49.696;10.808;2023-04-02T00:51:23;97486.69;;;7.91;100.00
64078;BME280;51039;49.696;10.808;2023-04-02T00:53:54;97488.13;;;7.86;100.00
64078;BME280;51039;49.696;10.808;2023-04-02T00:56:26;97481.25;;;7.85;100.00
64078;BME280;51039;49.696;10.808;2023-04-02T00:58:55;97484.28;;;7.89;100.00
64078;BME280;51039;49.696;10.808;2023-04-02T01:01:23;97490.78;;;7.86;100.00
64078;BME280;51039;49.696;10.808;2023-04-02T01:03:59;97488.94;;;7.87;100.00
64078;BME280;51039;49.696;10.808;2023-04-02T01:06:32;97485.09;;;7.83;100.00
64078;BME280;51039;49.696;10.808;2023-04-02T01:17:26;97499.28;;;7.89;100.00
64078;BME280;51039;49.696;10.808;2023-04-02T01:22:53;97499.09;;;7.90;100.00
64078;BME280;51039;49.696;10.808;2023-04-02T01:25:40;97510.44;;;7.91;100.00
64078;BME280;51039;49.696;10.808;2023-04-02T01:28:15;97498.47;;;7.88;100.00
64078;BME280;51039;49.696;10.808;2023-04-02T01:30:44;97513.91;;;7.91;100.00
64078;BME280;51039;49.696;10.808;2023-04-02T01:33:15;97508.22;;;7.88;100.00
64078;BME280;51039;49.696;10.808;2023-04-02T01:35:40;97505.78;;;7.86;100.00
64078;BME280;51039;49.696;10.808;2023-04-02T01:38:12;97507.19;;;7.89;100.00
64078;BME280;51039;49.696;10.808;2023-04-02T01:40:53;97508.22;;;7.88;100.00
64078;BME280;51039;49.696;10.808;2023-04-02T01:43:29;97518.78;;;7.88;100.00
64078;BME280;51039;49.696;10.808;2023-04-02T01:46:25;97519.97;;;7.92;100.00
64078;BME280;51039;49.696;10.808;2023-04-02T01:48:58;97519.56;;;7.88;100.00
64078;BME280;51039;49.696;10.808;2023-04-02T01:51:30;97526.88;;;7.86;100.00
64078;BME280;51039;49.696;10.808;2023-04-02T01:53:58;97522.41;;;7.86;100.00
64078;BME280;51039;49.696;10.808;2023-04-02T01:56:26;97517.94;;;7.87;100.00
64078;BME280;51039;49.696;10.808;2023-04-02T01:58:52;97527.28;;;7.90;100.00
64078;BME280;51039;49.696;10.808;2023-04-02T02:01:18;97530.91;;;7.89;100.00
64078;BME280;51039;49.696;10.808;2023-04-02T02:03:49;97541.06;;;7.92;100.00
64078;BME280;51039;49.696;10.808;2023-04-02T02:06:16;97531.53;;;7.91;100.00
64078;BME280;51039;49.696;10.808;2023-04-02T02:08:50;97531.53;;;7.91;100.00
64078;BME280;51039;49.696;10.808;2023-04-02T02:11:22;97538.44;;;7.92;100.00
64078;BME280;51039;49.696;10.808;2023-04-02T02:14:11;97536.78;;;7.91;100.00
64078;BME280;51039;49.696;10.808;2023-04-02T02:16:48;97541.06;;;7.92;100.00
64078;BME280;51039;49.696;10.808;2023-04-02T02:19:25;97542.91;;;7.91;100.00
64078;BME280;51039;49.696;10.808;2023-04-02T02:21:52;97540.63;;;7.95;100.00
64078;BME280;51039;49.696;10.808;2023-04-02T02:27:00;97551.19;;;7.95;100.00
64078;BME280;51039;49.696;10.808;2023-04-02T02:29:38;97557.88;;;7.91;100.00
64078;BME280;51039;49.696;10.808;2023-04-02T02:32:08;97559.53;;;7.92;100.00
64078;BME280;51039;49.696;10.808;2023-04-02T02:34:38;97556.88;;;7.92;100.00
64078;BME280;51039;49.696;10.808;2023-04-02T02:37:11;97570.47;;;7.89;100.00
64078;BME280;51039;49.696;10.808;2023-04-02T02:39:42;97568.88;;;7.88;100.00
64078;BME280;51039;49.696;10.808;2023-04-02T02:42:15;97570.91;;;7.85;100.00
64078;BME280;51039;49.696;10.808;2023-04-02T02:44:48;97573.94;;;7.82;100.00
64078;BME280;51039;49.696;10.808;2023-04-02T02:49:44;97584.09;;;7.85;100.00
64078;BME280;51039;49.696;10.808;2023-04-02T02:52:16;97572.69;;;7.85;100.00
64078;BME280;51039;49.696;10.808;2023-04-02T02:54:46;97582.66;;;7.83;100.00
64078;BME280;51039;49.696;10.808;2023-04-02T02:57:29;97590.56;;;7.83;100.00
64078;BME280;51039;49.696;10.808;2023-04-02T03:00:15;97587.75;;;7.78;100.00
64078;BME280;51039;49.696;10.808;2023-04-02T03:02:43;97586.91;;;7.77;100.00
64078;BME280;51039;49.696;10.808;2023-04-02T03:05:17;97597.25;;;7.79;100.00
64078;BME280;51039;49.696;10.808;2023-04-02T03:07:46;97596.25;;;7.80;100.00
64078;BME280;51039;49.696;10.808;2023-04-02T03:10:38;97594.63;;;7.79;100.00
64078;BME280;51039;49.696;10.808;2023-04-02T03:13:26;97598.47;;;7.83;100.00
64078;BME280;51039;49.696;10.808;2023-04-02T03:18:40;97598.88;;;7.80;100.00
64078;BME280;51039;49.696;10.808;2023-04-02T03:21:30;97604.75;;;7.82;100.00
64078;BME280;51039;49.696;10.808;2023-04-02T03:24:07;97616.91;;;7.83;100.00
64078;BME280;51039;49.696;10.808;2023-04-02T03:26:45;97620.97;;;7.79;100.00
64078;BME280;51039;49.696;10.808;2023-04-02T03:29:34;97613.28;;;7.77;100.00
64078;BME280;51039;49.696;10.808;2023-04-02T03:32:06;97619.38;;;7.78;100.00
64078;BME280;51039;49.696;10.808;2023-04-02T03:34:41;97622.41;;;7.81;100.00
64078;BME280;51039;49.696;10.808;2023-04-02T03:40:02;97624.22;;;7.81;100.00
64078;BME280;51039;49.696;10.808;2023-04-02T03:42:40;97627.69;;;7.75;100.00
64078;BME280;51039;49.696;10.808;2023-04-02T03:47:44;97633.34;;;7.78;100.00
64078;BME280;51039;49.696;10.808;2023-04-02T03:50:22;97632.34;;;7.79;100.00
64078;BME280;51039;49.696;10.808;2023-04-02T03:52:56;97641.66;;;7.75;100.00
64078;BME280;51039;49.696;10.808;2023-04-02T03:55:24;97641.66;;;7.75;100.00
64078;BME280;51039;49.696;10.808;2023-04-02T04:00:31;97642.88;;;7.73;100.00
64078;BME280;51039;49.696;10.808;2023-04-02T04:03:04;97646.94;;;7.75;100.00
64078;BME280;51039;49.696;10.808;2023-04-02T04:05:37;97648.75;;;7.75;100.00
64078;BME280;51039;49.696;10.808;2023-04-02T04:08:32;97648.97;;;7.73;100.00
64078;BME280;51039;49.696;10.808;2023-04-02T04:11:07;97657.28;;;7.77;100.00
64078;BME280;51039;49.696;10.808;2023-04-02T04:14:00;97657.72;;;7.74;100.00
64078;BME280;51039;49.696;10.808;2023-04-02T04:16:28;97667.59;;;7.72;100.00
64078;BME280;51039;49.696;10.808;2023-04-02T04:19:13;97672.50;;;7.75;100.00
64078;BME280;51039;49.696;10.808;2023-04-02T04:21:45;97677.97;;;7.73;100.00
64078;BME280;51039;49.696;10.808;2023-04-02T04:24:15;97678.78;;;7.74;100.00
64078;BME280;51039;49.696;10.808;2023-04-02T04:26:54;97677.75;;;7.75;100.00
64078;BME280;51039;49.696;10.808;2023-04-02T04:32:35;97680.19;;;7.70;100.00
64078;BME280;51039;49.696;10.808;2023-04-02T04:38:14;97693.78;;;7.73;100.00
64078;BME280;51039;49.696;10.808;2023-04-02T04:40:49;97700.50;;;7.76;100.00
64078;BME280;51039;49.696;10.808;2023-04-02T04:43:21;97694.00;;;7.78;100.00
64078;BME280;51039;49.696;10.808;2023-04-02T04:46:12;97693.38;;;7.76;100.00
64078;BME280;51039;49.696;10.808;2023-04-02T04:51:28;97708.59;;;7.81;100.00
64078;BME280;51039;49.696;10.808;2023-04-02T04:53:59;97717.09;;;7.83;100.00
64078;BME280;51039;49.696;10.808;2023-04-02T04:56:26;97712.66;;;7.83;100.00
64078;BME280;51039;49.696;10.808;2023-04-02T05:09:43;97743.50;;;7.90;100.00
64078;BME280;51039;49.696;10.808;2023-04-02T05:12:36;97744.72;;;7.94;100.00
64078;BME280;51039;49.696;10.808;2023-04-02T05:20:47;97751.84;;;7.93;100.00
64078;BME280;51039;49.696;10.808;2023-04-02T05:23:27;97751.41;;;7.90;100.00
64078;BME280;51039;49.696;10.808;2023-04-02T05:26:03;97758.72;;;7.94;100.00
64078;BME280;51039;49.696;10.808;2023-04-02T05:31:06;97759.31;;;7.90;100.00
64078;BME280;51039;49.696;10.808;2023-04-02T05:33:36;97765.22;;;7.92;100.00
64078;BME280;51039;49.696;10.808;2023-04-02T05:38:36;97763.00;;;7.95;100.00
64078;BME280;51039;49.696;10.808;2023-04-02T05:44:17;97775.16;;;8.03;100.00
64078;BME280;51039;49.696;10.808;2023-04-02T05:46:48;97786.31;;;7.98;100.00
64078;BME280;51039;49.696;10.808;2023-04-02T05:49:30;97783.66;;;7.98;100.00
64078;BME280;51039;49.696;10.808;2023-04-02T05:52:05;97791.19;;;8.01;100.00
64078;BME280;51039;49.696;10.808;2023-04-02T05:54:37;97788.34;;;7.96;100.00
64078;BME280;51039;49.696;10.808;2023-04-02T05:57:10;97795.06;;;7.99;100.00
64078;BME280;51039;49.696;10.808;2023-04-02T05:59:40;97792.59;;;7.97;100.00
64078;BME280;51039;49.696;10.808;2023-04-02T06:05:10;97797.47;;;8.00;100.00
64078;BME280;51039;49.696;10.808;2023-04-02T06:07:42;97795.63;;;7.94;100.00
64078;BME280;51039;49.696;10.808;2023-04-02T06:10:20;97806.19;;;7.94;100.00
64078;BME280;51039;49.696;10.808;2023-04-02T06:12:53;97809.00;;;7.93;100.00
64078;BME280;51039;49.696;10.808;2023-04-02T06:15:28;97814.13;;;8.01;100.00
64078;BME280;51039;49.696;10.808;2023-04-02T06:20:24;97817.19;;;8.04;100.00
64078;BME280;51039;49.696;10.808;2023-04-02T06:23:05;97824.06;;;8.05;100.00
64078;BME280;51039;49.696;10.808;2023-04-02T06:25:40;97829.13;;;8.00;100.00
64078;BME280;51039;49.696;10.808;2023-04-02T06:28:18;97838.47;;;8.03;100.00
64078;BME280;51039;49.696;10.808;2023-04-02T06:30:51;97850.41;;;7.85;100.00
64078;BME280;51039;49.696;10.808;2023-04-02T06:33:20;97859.16;;;7.51;100.00
64078;BME280;51039;49.696;10.808;2023-04-02T06:35:46;97865.59;;;7.42;100.00
64078;BME280;51039;49.696;10.808;2023-04-02T06:38:19;97871.84;;;7.34;100.00
64078;BME280;51039;49.696;10.808;2023-04-02T06:40:57;97871.66;;;7.42;100.00
64078;BME280;51039;49.696;10.808;2023-04-02T06:43:36;97881.78;;;7.39;100.00
64078;BME280;51039;49.696;10.808;2023-04-02T06:46:08;97884.31;;;7.54;100.00
64078;BME280;51039;49.696;10.808;2023-04-02T06:48:40;97891.22;;;7.55;100.00
64078;BME280;51039;49.696;10.808;2023-04-02T06:51:08;97891.69;;;7.72;100.00
64078;BME280;51039;49.696;10.808;2023-04-02T06:53:44;97896.75;;;7.66;100.00
64078;BME280;51039;49.696;10.808;2023-04-02T06:56:16;97905.78;;;7.51;100.00
64078;BME280;51039;49.696;10.808;2023-04-02T06:58:49;97916.38;;;7.29;100.00
64078;BME280;51039;49.696;10.808;2023-04-02T07:01:20;97918.91;;;7.44;100.00
64078;BME280;51039;49.696;10.808;2023-04-02T07:03:49;97924.00;;;7.17;100.00
64078;BME280;51039;49.696;10.808;2023-04-02T07:06:17;97932.31;;;7.14;100.00
64078;BME280;51039;49.696;10.808;2023-04-02T07:08:44;97928.84;;;7.14;100.00
64078;BME280;51039;49.696;10.808;2023-04-02T07:11:13;97936.72;;;7.14;100.00
64078;BME280;51039;49.696;10.808;2023-04-02T07:13:41;97941.72;;;7.02;100.00
64078;BME280;51039;49.696;10.808;2023-04-02T07:16:07;97942.47;;;6.96;100.00
64078;BME280;51039;49.696;10.808;2023-04-02T07:18:38;97947.31;;;6.92;100.00
64078;BME280;51039;49.696;10.808;2023-04-02T07:21:03;97956.84;;;6.93;100.00
64078;BME280;51039;49.696;10.808;2023-04-02T07:23:29;97963.41;;;6.82;100.00
64078;BME280;51039;49.696;10.808;2023-04-02T07:25:54;97969.44;;;6.98;100.00
64078;BME280;51039;49.696;10.808;2023-04-02T07:28:21;97980.53;;;6.93;100.00
64078;BME280;51039;49.696;10.808;2023-04-02T07:30:46;97984.16;;;6.92;100.00
64078;BME280;51039;49.696;10.808;2023-04-02T07:33:12;97981.78;;;6.97;100.00
64078;BME280;51039;49.696;10.808;2023-04-02T07:35:38;97990.19;;;6.86;100.00
64078;BME280;51039;49.696;10.808;2023-04-02T07:38:04;97996.38;;;7.00;100.00
64078;BME280;51039;49.696;10.808;2023-04-02T07:40:30;98002.22;;;6.95;100.00
64078;BME280;51039;49.696;10.808;2023-04-02T07:42:55;98004.91;;;7.02;100.00
64078;BME280;51039;49.696;10.808;2023-04-02T07:45:22;98006.69;;;7.16;100.00
64078;BME280;51039;49.696;10.808;2023-04-02T07:47:48;98015.44;;;7.45;100.00
64078;BME280;51039;49.696;10.808;2023-04-02T07:50:13;98022.50;;;7.73;100.00
64078;BME280;51039;49.696;10.808;2023-04-02T07:52:39;98029.84;;;7.49;100.00
64078;BME280;51039;49.696;10.808;2023-04-02T07:55:06;98026.06;;;7.37;100.00
64078;BME280;51039;49.696;10.808;2023-04-02T07:57:36;98035.06;;;6.99;100.00
64078;BME280;51039;49.696;10.808;2023-04-02T08:00:03;98048.09;;;6.86;100.00
64078;BME280;51039;49.696;10.808;2023-04-02T08:02:31;98049.00;;;6.93;100.00
64078;BME280;51039;49.696;10.808;2023-04-02T08:04:56;98063.41;;;6.76;99.95
64078;BME280;51039;49.696;10.808;2023-04-02T08:07:21;98067.03;;;6.60;100.00
64078;BME280;51039;49.696;10.808;2023-04-02T08:09:47;98068.28;;;6.64;100.00
64078;BME280;51039;49.696;10.808;2023-04-02T08:12:12;98073.63;;;6.85;100.00
64078;BME280;51039;49.696;10.808;2023-04-02T08:14:38;98076.00;;;6.65;100.00
64078;BME280;51039;49.696;10.808;2023-04-02T08:17:03;98074.25;;;6.87;100.00
64078;BME280;51039;49.696;10.808;2023-04-02T08:19:28;98088.41;;;6.86;100.00
64078;BME280;51039;49.696;10.808;2023-04-02T08:21:55;98097.69;;;6.67;100.00
64078;BME280;51039;49.696;10.808;2023-04-02T08:24:20;98102.16;;;6.67;100.00
64078;BME280;51039;49.696;10.808;2023-04-02T08:26:46;98099.81;;;6.42;100.00
64078;BME280;51039;49.696;10.808;2023-04-02T08:29:13;98112.16;;;6.42;100.00
64078;BME280;51039;49.696;10.808;2023-04-02T08:31:39;98106.28;;;6.40;100.00
64078;BME280;51039;49.696;10.808;2023-04-02T08:34:04;98110.06;;;6.52;100.00
64078;BME280;51039;49.696;10.808;2023-04-02T08:36:34;98113.44;;;6.46;98.50
64078;BME280;51039;49.696;10.808;2023-04-02T08:39:02;98112.72;;;6.37;100.00
64078;BME280;51039;49.696;10.808;2023-04-02T08:41:33;98126.69;;;6.38;99.35
64078;BME280;51039;49.696;10.808;2023-04-02T08:46:43;98139.94;;;7.11;96.50
64078;BME280;51039;49.696;10.808;2023-04-02T08:51:59;98144.72;;;6.85;96.22
64078;BME280;51039;49.696;10.808;2023-04-02T08:54:26;98146.34;;;6.72;96.98
64078;BME280;51039;49.696;10.808;2023-04-02T08:56:58;98143.97;;;6.77;96.90
64078;BME280;51039;49.696;10.808;2023-04-02T08:59:35;98153.53;;;6.78;97.10
64078;BME280;51039;49.696;10.808;2023-04-02T09:02:20;98157.97;;;6.62;97.88
64078;BME280;51039;49.696;10.808;2023-04-02T09:04:55;98165.03;;;6.62;97.84
64078;BME280;51039;49.696;10.808;2023-04-02T09:07:22;98161.97;;;6.58;98.66
64078;BME280;51039;49.696;10.808;2023-04-02T09:09:48;98165.94;;;6.84;96.90
64078;BME280;51039;49.696;10.808;2023-04-02T09:12:25;98177.13;;;6.71;96.06
64078;BME280;51039;49.696;10.808;2023-04-02T09:15:00;98185.19;;;6.69;95.81
64078;BME280;51039;49.696;10.808;2023-04-02T09:17:42;98192.91;;;6.41;94.86
64078;BME280;51039;49.696;10.808;2023-04-02T09:22:48;98204.25;;;6.57;96.92
64078;BME280;51039;49.696;10.808;2023-04-02T09:25:33;98201.69;;;6.48;95.43
64078;BME280;51039;49.696;10.808;2023-04-02T09:28:00;98216.06;;;6.76;96.12
64078;BME280;51039;49.696;10.808;2023-04-02T09:33:09;98232.47;;;6.48;95.54
64078;BME280;51039;49.696;10.808;2023-04-02T09:35:36;98234.28;;;6.47;96.49
64078;BME280;51039;49.696;10.808;2023-04-02T09:38:18;98233.19;;;6.42;96.81
64078;BME280;51039;49.696;10.808;2023-04-02T09:43:27;98252.31;;;6.36;96.21
64078;BME280;51039;49.696;10.808;2023-04-02T09:48:32;98255.19;;;6.26;97.23
64078;BME280;51039;49.696;10.808;2023-04-02T09:53:33;98266.25;;;6.74;95.96
64078;BME280;51039;49.696;10.808;2023-04-02T09:58:33;98275.31;;;6.57;93.67
64078;BME280;51039;49.696;10.808;2023-04-02T10:00:58;98281.34;;;6.95;95.20
64078;BME280;51039;49.696;10.808;2023-04-02T10:03:40;98284.72;;;6.89;90.23
64078;BME280;51039;49.696;10.808;2023-04-02T10:06:11;98275.78;;;6.90;90.92
64078;BME280;51039;49.696;10.808;2023-04-02T10:08:38;98285.78;;;6.95;89.31
64078;BME280;51039;49.696;10.808;2023-04-02T10:11:13;98281.25;;;6.88;89.90
64078;BME280;51039;49.696;10.808;2023-04-02T10:13:53;98288.50;;;7.31;90.03
64078;BME280;51039;49.696;10.808;2023-04-02T10:16:29;98300.47;;;7.48;90.16
64078;BME280;51039;49.696;10.808;2023-04-02T10:18:58;98292.56;;;7.85;88.49
64078;BME280;51039;49.696;10.808;2023-04-02T10:21:31;98305.25;;;7.60;87.88
64078;BME280;51039;49.696;10.808;2023-04-02T10:24:00;98305.56;;;7.86;88.80
64078;BME280;51039;49.696;10.808;2023-04-02T10:31:53;98318.97;;;8.06;88.54
64078;BME280;51039;49.696;10.808;2023-04-02T10:34:38;98316.91;;;7.87;86.83
64078;BME280;51039;49.696;10.808;2023-04-02T10:37:10;98321.31;;;7.80;90.08
64078;BME280;51039;49.696;10.808;2023-04-02T10:48:13;98343.00;;;7.16;91.76
64078;BME280;51039;49.696;10.808;2023-04-02T10:53:18;98348.34;;;6.78;91.41
64078;BME280;51039;49.696;10.808;2023-04-02T10:55:51;98360.41;;;6.87;91.10
64078;BME280;51039;49.696;10.808;2023-04-02T10:58:27;98362.72;;;7.05;91.97
64078;BME280;51039;49.696;10.808;2023-04-02T11:00:57;98368.06;;;6.97;89.98
64078;BME280;51039;49.696;10.808;2023-04-02T11:06:42;98370.50;;;6.83;89.53
64078;BME280;51039;49.696;10.808;2023-04-02T11:09:14;98378.06;;;7.01;90.77
64078;BME280;51039;49.696;10.808;2023-04-02T11:11:45;98377.00;;;7.11;90.45
64078;BME280;51039;49.696;10.808;2023-04-02T11:16:51;98392.72;;;6.81;91.71
64078;BME280;51039;49.696;10.808;2023-04-02T11:21:47;98393.56;;;6.96;92.57
64078;BME280;51039;49.696;10.808;2023-04-02T11:27:02;98404.09;;;6.96;91.19
64078;BME280;51039;49.696;10.808;2023-04-02T11:29:30;98409.78;;;6.85;91.32
64078;BME280;51039;49.696;10.808;2023-04-02T11:32:12;98411.09;;;6.89;92.10
64078;BME280;51039;49.696;10.808;2023-04-02T11:37:08;98418.94;;;6.51;92.96
64078;BME280;51039;49.696;10.808;2023-04-02T11:39:52;98417.84;;;6.45;94.64
64078;BME280;51039;49.696;10.808;2023-04-02T11:42:29;98426.22;;;6.41;94.10
64078;BME280;51039;49.696;10.808;2023-04-02T11:50:33;98432.91;;;6.52;91.97
64078;BME280;51039;49.696;10.808;2023-04-02T11:55:42;98454.50;;;6.70;91.75
64078;BME280;51039;49.696;10.808;2023-04-02T12:06:52;98468.31;;;6.41;93.39
64078;BME280;51039;49.696;10.808;2023-04-02T12:09:46;98461.97;;;6.35;93.62
64078;BME280;51039;49.696;10.808;2023-04-02T12:14:58;98477.66;;;6.20;94.43
64078;BME280;51039;49.696;10.808;2023-04-02T12:17:26;98482.97;;;6.12;92.86
64078;BME280;51039;49.696;10.808;2023-04-02T12:19:59;98481.41;;;6.26;93.50
64078;BME280;51039;49.696;10.808;2023-04-02T12:22:29;98480.25;;;6.28;92.12
64078;BME280;51039;49.696;10.808;2023-04-02T12:25:00;98494.13;;;6.45;90.88
64078;BME280;51039;49.696;10.808;2023-04-02T12:27:29;98489.00;;;6.52;88.88
64078;BME280;51039;49.696;10.808;2023-04-02T12:29:55;98498.72;;;6.75;88.15
64078;BME280;51039;49.696;10.808;2023-04-02T12:32:54;98491.44;;;7.23;88.60
64078;BME280;51039;49.696;10.808;2023-04-02T12:35:29;98498.66;;;7.06;87.09
64078;BME280;51039;49.696;10.808;2023-04-02T12:37:59;98516.50;;;6.73;87.60
64078;BME280;51039;49.696;10.808;2023-04-02T12:40:26;98512.53;;;6.77;85.96
64078;BME280;51039;49.696;10.808;2023-04-02T12:42:52;98512.13;;;6.65;86.02
64078;BME280;51039;49.696;10.808;2023-04-02T12:45:24;98504.44;;;6.55;87.32
64078;BME280;51039;49.696;10.808;2023-04-02T12:47:52;98524.06;;;6.44;86.45
64078;BME280;51039;49.696;10.808;2023-04-02T12:50:18;98516.41;;;6.66;85.17
64078;BME280;51039;49.696;10.808;2023-04-02T12:52:45;98520.38;;;6.85;83.63
64078;BME280;51039;49.696;10.808;2023-04-02T12:55:16;98518.38;;;7.33;82.57
64078;BME280;51039;49.696;10.808;2023-04-02T12:57:44;98529.28;;;7.30;80.22
64078;BME280;51039;49.696;10.808;2023-04-02T13:02:49;98527.28;;;7.32;82.92
64078;BME280;51039;49.696;10.808;2023-04-02T13:08:14;98531.53;;;6.95;83.24
64078;BME280;51039;49.696;10.808;2023-04-02T13:10:42;98537.34;;;6.82;81.97
64078;BME280;51039;49.696;10.808;2023-04-02T13:13:15;98536.47;;;6.90;79.35
64078;BME280;51039;49.696;10.808;2023-04-02T13:15:47;98537.75;;;6.94;78.65
64078;BME280;51039;49.696;10.808;2023-04-02T13:18:28;98544.97;;;7.00;79.05
64078;BME280;51039;49.696;10.808;2023-04-02T13:20:59;98546.31;;;7.19;79.07
64078;BME280;51039;49.696;10.808;2023-04-02T13:28:21;98562.28;;;6.95;79.54
64078;BME280;51039;49.696;10.808;2023-04-02T13:30:47;98572.78;;;6.72;81.63
64078;BME280;51039;49.696;10.808;2023-04-02T13:33:13;98568.59;;;6.54;81.11
64078;BME280;51039;49.696;10.808;2023-04-02T13:35:38;98575.88;;;6.44;82.61
64078;BME280;51039;49.696;10.808;2023-04-02T13:38:04;98580.25;;;6.60;82.30
64078;BME280;51039;49.696;10.808;2023-04-02T13:40:30;98579.22;;;6.29;80.96
64078;BME280;51039;49.696;10.808;2023-04-02T13:42:57;98577.81;;;6.11;81.09
64078;BME280;51039;49.696;10.808;2023-04-02T13:45:26;98592.75;;;6.10;82.05
64078;BME280;51039;49.696;10.808;2023-04-02T13:47:53;98594.41;;;6.03;82.20
64078;BME280;51039;49.696;10.808;2023-04-02T13:50:24;98602.00;;;5.81;82.01
64078;BME280;51039;49.696;10.808;2023-04-02T13:52:50;98602.31;;;5.70;82.59
64078;BME280;51039;49.696;10.808;2023-04-02T13:55:17;98607.25;;;5.65;82.74
64078;BME280;51039;49.696;10.808;2023-04-02T13:57:44;98613.34;;;5.49;83.88
64078;BME280;51039;49.696;10.808;2023-04-02T14:00:10;98616.28;;;5.29;83.28
64078;BME280;51039;49.696;10.808;2023-04-02T14:02:38;98627.91;;;5.27;82.81
64078;BME280;51039;49.696;10.808;2023-04-02T14:05:16;98620.88;;;5.36;83.81
64078;BME280;51039;49.696;10.808;2023-04-02T14:13:42;98630.72;;;5.34;83.25
64078;BME280;51039;49.696;10.808;2023-04-02T14:28:09;98662.13;;;4.92;79.79
64078;BME280;51039;49.696;10.808;2023-04-02T14:33:48;98676.09;;;5.01;78.84
64078;BME280;51039;49.696;10.808;2023-04-02T14:45:06;98686.34;;;5.29;76.87
64078;BME280;51039;49.696;10.808;2023-04-02T14:47:40;98692.44;;;5.29;76.12
64078;BME280;51039;49.696;10.808;2023-04-02T14:50:11;98692.25;;;5.31;77.20
64078;BME280;51039;49.696;10.808;2023-04-02T14:52:41;98699.75;;;5.01;74.99
64078;BME280;51039;49.696;10.808;2023-04-02T14:55:14;98676.03;;;4.85;74.92
64078;BME280;51039;49.696;10.808;2023-04-02T14:57:50;98694.47;;;4.93;75.66
64078;BME280;51039;49.696;10.808;2023-04-02T15:03:20;98693.47;;;4.94;74.39
64078;BME280;51039;49.696;10.808;2023-04-02T15:06:02;98699.38;;;4.96;74.23
64078;BME280;51039;49.696;10.808;2023-04-02T15:08:29;98706.09;;;4.90;74.46
64078;BME280;51039;49.696;10.808;2023-04-02T15:11:13;98714.56;;;4.76;75.62
64078;BME280;51039;49.696;10.808;2023-04-02T15:16:29;98714.41;;;4.78;76.15
64078;BME280;51039;49.696;10.808;2023-04-02T15:18:56;98716.25;;;4.85;76.65
64078;BME280;51039;49.696;10.808;2023-04-02T15:21:28;98723.25;;;4.77;74.83
64078;BME280;51039;49.696;10.808;2023-04-02T15:24:08;98730.41;;;4.66;74.30
64078;BME280;51039;49.696;10.808;2023-04-02T15:46:19;98744.75;;;4.54;72.30
64078;BME280;51039;49.696;10.808;2023-04-02T15:49:00;98758.28;;;4.67;71.81
64078;BME280;51039;49.696;10.808;2023-04-02T15:54:41;98758.72;;;4.55;70.95
64078;BME280;51039;49.696;10.808;2023-04-02T16:10:36;98784.44;;;4.51;72.13
64078;BME280;51039;49.696;10.808;2023-04-02T16:13:22;98785.91;;;4.53;72.28
64078;BME280;51039;49.696;10.808;2023-04-02T16:18:58;98790.97;;;4.47;73.32
64078;BME280;51039;49.696;10.808;2023-04-02T16:24:26;98795.31;;;4.56;74.84
64078;BME280;51039;49.696;10.808;2023-04-02T16:29:57;98798.94;;;4.37;74.17
64078;BME280;51039;49.696;10.808;2023-04-02T16:32:53;98810.72;;;4.33;74.88
64078;BME280;51039;49.696;10.808;2023-04-02T16:38:23;98821.66;;;4.10;75.08
64078;BME280;51039;49.696;10.808;2023-04-02T16:43:52;98836.38;;;3.93;75.73
64078;BME280;51039;49.696;10.808;2023-04-02T16:46:25;98839.69;;;3.96;74.86
64078;BME280;51039;49.696;10.808;2023-04-02T16:52:12;98842.81;;;3.81;75.30
64078;BME280;51039;49.696;10.808;2023-04-02T17:00:31;98860.69;;;3.68;76.11
64078;BME280;51039;49.696;10.808;2023-04-02T17:08:42;98876.28;;;3.60;77.35
64078;BME280;51039;49.696;10.808;2023-04-02T17:11:16;98886.09;;;3.58;77.55
64078;BME280;51039;49.696;10.808;2023-04-02T17:13:52;98886.53;;;3.53;78.32
64078;BME280;51039;49.696;10.808;2023-04-02T17:16:31;98894.13;;;3.46;78.81
64078;BME280;51039;49.696;10.808;2023-04-02T17:19:12;98900.63;;;3.42;78.81
64078;BME280;51039;49.696;10.808;2023-04-02T17:21:40;98901.59;;;3.41;79.43
64078;BME280;51039;49.696;10.808;2023-04-02T17:27:22;98911.09;;;3.42;80.02
64078;BME280;51039;49.696;10.808;2023-04-02T17:29:58;98917.47;;;3.40;78.56
64078;BME280;51039;49.696;10.808;2023-04-02T17:32:29;98916.63;;;3.39;78.44
64078;BME280;51039;49.696;10.808;2023-04-02T17:35:14;98922.97;;;3.37;78.77
64078;BME280;51039;49.696;10.808;2023-04-02T17:37:43;98917.22;;;3.33;77.63
64078;BME280;51039;49.696;10.808;2023-04-02T17:40:33;98922.31;;;3.25;77.55